sensor_id;sensor_type;location;lat;lon;timestamp;temperature;humidity
21648;DHT22;10985;54.182;7.890;2023-04-07T00:00:59;8.50;99.90
21648;DHT22;10985;54.182;7.890;2023-04-07T00:03:24;8.50;99.90
21648;DHT22;10985;54.182;7.890;2023-04-07T00:05:50;8.50;99.90
21648;DHT22;10985;54.182;7.890;2023-04-07T00:08:16;8.50;99.90
21648;DHT22;10985;54.182;7.890;2023-04-07T00:10:41;8.40;99.90
21648;DHT22;10985;54.182;7.890;2023-04-07T00:13:07;8.40;99.90
21648;DHT22;10985;54.182;7.890;2023-04-07T00:15:32;8.40;99.90
21648;DHT22;10985;54.182;7.890;2023-04-07T00:17:58;8.40;99.90
21648;DHT22;10985;54.182;7.890;2023-04-07T00:20:23;8.40;99.90
21648;DHT22;10985;54.182;7.890;2023-04-07T00:22:49;8.40;99.90
21648;DHT22;10985;54.182;7.890;2023-04-07T00:25:14;8.40;99.90
21648;DHT22;10985;54.182;7.890;2023-04-07T00:27:40;8.40;99.90
21648;DHT22;10985;54.182;7.890;2023-04-07T00:30:06;8.40;99.90
21648;DHT22;10985;54.182;7.890;2023-04-07T00:32:32;8.30;99.90
21648;DHT22;10985;54.182;7.890;2023-04-07T00:34:57;8.30;99.90
21648;DHT22;10985;54.182;7.890;2023-04-07T00:39:51;8.30;99.90
21648;DHT22;10985;54.182;7.890;2023-04-07T00:42:17;8.30;99.90
21648;DHT22;10985;54.182;7.890;2023-04-07T00:44:43;8.30;99.90
21648;DHT22;10985;54.182;7.890;2023-04-07T00:47:08;8.20;99.90
21648;DHT22;10985;54.182;7.890;2023-04-07T00:49:36;8.20;99.90
21648;DHT22;10985;54.182;7.890;2023-04-07T00:52:01;8.20;99.90
21648;DHT22;10985;54.182;7.890;2023-04-07T00:54:29;8.20;99.90
21648;DHT22;10985;54.182;7.890;2023-04-07T00:56:55;8.10;99.90
21648;DHT22;10985;54.182;7.890;2023-04-07T00:59:21;8.10;99.90
21648;DHT22;10985;54.182;7.890;2023-04-07T01:02:01;8.10;99.90
21648;DHT22;10985;54.182;7.890;2023-04-07T01:04:32;8.10;99.90
21648;DHT22;10985;54.182;7.890;2023-04-07T01:07:10;8.10;99.90
21648;DHT22;10985;54.182;7.890;2023-04-07T01:09:52;8.10;99.90
21648;DHT22;10985;54.182;7.890;2023-04-07T01:14:59;8.00;99.90
21648;DHT22;10985;54.182;7.890;2023-04-07T01:17:29;8.00;99.90
21648;DHT22;10985;54.182;7.890;2023-04-07T01:20:04;8.00;99.90
21648;DHT22;10985;54.182;7.890;2023-04-07T01:22:43;8.00;99.90
21648;DHT22;10985;54.182;7.890;2023-04-07T01:30:17;7.90;99.90
21648;DHT22;10985;54.182;7.890;2023-04-07T01:32:45;7.90;99.90
21648;DHT22;10985;54.182;7.890;2023-04-07T01:35:12;7.90;99.90
21648;DHT22;10985;54.182;7.890;2023-04-07T01:37:39;7.80;99.90
21648;DHT22;10985;54.182;7.890;2023-04-07T01:40:06;7.80;99.90
21648;DHT22;10985;54.182;7.890;2023-04-07T01:42:35;7.80;99.90
21648;DHT22;10985;54.182;7.890;2023-04-07T01:45:02;7.80;99.90
21648;DHT22;10985;54.182;7.890;2023-04-07T01:47:28;7.80;99.90
21648;DHT22;10985;54.182;7.890;2023-04-07T01:49:57;7.80;99.90
21648;DHT22;10985;54.182;7.890;2023-04-07T01:52:25;7.80;99.90
21648;DHT22;10985;54.182;7.890;2023-04-07T01:54:52;7.80;99.90
21648;DHT22;10985;54.182;7.890;2023-04-07T01:57:18;7.70;99.90
21648;DHT22;10985;54.182;7.890;2023-04-07T01:59:43;7.70;99.90
21648;DHT22;10985;54.182;7.890;2023-04-07T02:02:08;7.70;99.90
21648;DHT22;10985;54.182;7.890;2023-04-07T02:04:38;7.70;99.90
21648;DHT22;10985;54.182;7.890;2023-04-07T02:07:09;7.70;99.90
21648;DHT22;10985;54.182;7.890;2023-04-07T02:09:38;7.70;99.90
21648;DHT22;10985;54.182;7.890;2023-04-07T02:12:07;7.60;99.90
21648;DHT22;10985;54.182;7.890;2023-04-07T02:14:35;7.60;99.90
21648;DHT22;10985;54.182;7.890;2023-04-07T02:17:01;7.60;99.90
21648;DHT22;10985;54.182;7.890;2023-04-07T02:19:28;7.60;99.90
21648;DHT22;10985;54.182;7.890;2023-04-07T02:21:55;7.60;99.90
21648;DHT22;10985;54.182;7.890;2023-04-07T02:24:20;7.50;99.90
21648;DHT22;10985;54.182;7.890;2023-04-07T02:26:46;7.50;99.90
21648;DHT22;10985;54.182;7.890;2023-04-07T02:29:12;7.50;99.90
21648;DHT22;10985;54.182;7.890;2023-04-07T02:31:38;7.50;99.90
21648;DHT22;10985;54.182;7.890;2023-04-07T02:34:03;7.50;99.90
21648;DHT22;10985;54.182;7.890;2023-04-07T02:36:29;7.50;99.90
21648;DHT22;10985;54.182;7.890;2023-04-07T02:38:55;7.50;99.90
21648;DHT22;10985;54.182;7.890;2023-04-07T02:41:21;7.50;99.90
21648;DHT22;10985;54.182;7.890;2023-04-07T02:43:46;7.50;99.90
21648;DHT22;10985;54.182;7.890;2023-04-07T02:46:12;7.50;99.90
21648;DHT22;10985;54.182;7.890;2023-04-07T02:48:37;7.50;99.90
21648;DHT22;10985;54.182;7.890;2023-04-07T02:51:03;7.50;99.90
21648;DHT22;10985;54.182;7.890;2023-04-07T02:53:28;7.40;99.90
21648;DHT22;10985;54.182;7.890;2023-04-07T02:55:54;7.40;99.90
21648;DHT22;10985;54.182;7.890;2023-04-07T02:58:19;7.40;99.90
21648;DHT22;10985;54.182;7.890;2023-04-07T03:00:47;7.40;99.90
21648;DHT22;10985;54.182;7.890;2023-04-07T03:03:13;7.40;99.90
21648;DHT22;10985;54.182;7.890;2023-04-07T03:05:38;7.40;99.90
21648;DHT22;10985;54.182;7.890;2023-04-07T03:08:04;7.40;99.90
21648;DHT22;10985;54.182;7.890;2023-04-07T03:10:29;7.30;99.90
21648;DHT22;10985;54.182;7.890;2023-04-07T03:12:56;7.30;99.90
21648;DHT22;10985;54.182;7.890;2023-04-07T03:15:22;7.30;99.90
21648;DHT22;10985;54.182;7.890;2023-04-07T03:17:47;7.30;99.90
21648;DHT22;10985;54.182;7.890;2023-04-07T03:20:13;7.30;99.90
21648;DHT22;10985;54.182;7.890;2023-04-07T03:22:38;7.30;99.90
21648;DHT22;10985;54.182;7.890;2023-04-07T03:25:04;7.30;99.90
21648;DHT22;10985;54.182;7.890;2023-04-07T03:27:30;7.30;99.90
21648;DHT22;10985;54.182;7.890;2023-04-07T03:29:56;7.30;99.90
21648;DHT22;10985;54.182;7.890;2023-04-07T03:32:22;7.30;99.90
21648;DHT22;10985;54.182;7.890;2023-04-07T03:34:47;7.30;99.90
21648;DHT22;10985;54.182;7.890;2023-04-07T03:37:13;7.20;99.90
21648;DHT22;10985;54.182;7.890;2023-04-07T03:39:38;7.20;99.90
21648;DHT22;10985;54.182;7.890;2023-04-07T03:42:05;7.20;99.90
21648;DHT22;10985;54.182;7.890;2023-04-07T03:44:30;7.20;99.90
21648;DHT22;10985;54.182;7.890;2023-04-07T03:46:57;7.20;99.90
21648;DHT22;10985;54.182;7.890;2023-04-07T03:49:22;7.20;99.90
21648;DHT22;10985;54.182;7.890;2023-04-07T03:51:48;7.20;99.90
21648;DHT22;10985;54.182;7.890;2023-04-07T03:54:13;7.20;99.90
21648;DHT22;10985;54.182;7.890;2023-04-07T03:56:40;7.20;99.90
21648;DHT22;10985;54.182;7.890;2023-04-07T03:59:05;7.10;99.90
21648;DHT22;10985;54.182;7.890;2023-04-07T04:01:31;7.10;99.90
21648;DHT22;10985;54.182;7.890;2023-04-07T04:03:56;7.10;99.90
21648;DHT22;10985;54.182;7.890;2023-04-07T04:06:22;7.10;99.90
21648;DHT22;10985;54.182;7.890;2023-04-07T04:08:47;7.10;99.90
21648;DHT22;10985;54.182;7.890;2023-04-07T04:11:13;7.10;99.90
21648;DHT22;10985;54.182;7.890;2023-04-07T04:13:38;7.10;99.90
21648;DHT22;10985;54.182;7.890;2023-04-07T04:16:05;7.10;99.90
21648;DHT22;10985;54.182;7.890;2023-04-07T04:18:30;7.00;99.90
21648;DHT22;10985;54.182;7.890;2023-04-07T04:20:56;7.00;99.90
21648;DHT22;10985;54.182;7.890;2023-04-07T04:23:21;7.00;99.90
21648;DHT22;10985;54.182;7.890;2023-04-07T04:25:47;7.00;99.90
21648;DHT22;10985;54.182;7.890;2023-04-07T04:28:12;7.00;99.90
21648;DHT22;10985;54.182;7.890;2023-04-07T04:30:38;7.00;99.90
21648;DHT22;10985;54.182;7.890;2023-04-07T04:33:03;7.00;99.90
21648;DHT22;10985;54.182;7.890;2023-04-07T04:35:29;7.00;99.90
21648;DHT22;10985;54.182;7.890;2023-04-07T04:37:54;7.00;99.90
21648;DHT22;10985;54.182;7.890;2023-04-07T04:40:20;7.00;99.90
21648;DHT22;10985;54.182;7.890;2023-04-07T04:42:45;7.00;99.90
21648;DHT22;10985;54.182;7.890;2023-04-07T04:45:11;7.00;99.90
21648;DHT22;10985;54.182;7.890;2023-04-07T04:47:36;7.00;99.90
21648;DHT22;10985;54.182;7.890;2023-04-07T04:50:05;6.90;99.90
21648;DHT22;10985;54.182;7.890;2023-04-07T04:52:31;6.90;99.90
21648;DHT22;10985;54.182;7.890;2023-04-07T04:54:56;6.90;99.90
21648;DHT22;10985;54.182;7.890;2023-04-07T04:57:22;6.90;99.90
21648;DHT22;10985;54.182;7.890;2023-04-07T04:59:47;6.90;99.90
21648;DHT22;10985;54.182;7.890;2023-04-07T05:02:13;7.00;99.90
21648;DHT22;10985;54.182;7.890;2023-04-07T05:04:38;6.90;99.90
21648;DHT22;10985;54.182;7.890;2023-04-07T05:07:04;6.90;99.90
21648;DHT22;10985;54.182;7.890;2023-04-07T05:09:30;6.90;99.90
21648;DHT22;10985;54.182;7.890;2023-04-07T05:11:56;6.90;99.90
21648;DHT22;10985;54.182;7.890;2023-04-07T05:14:22;6.90;99.90
21648;DHT22;10985;54.182;7.890;2023-04-07T05:16:47;6.90;99.90
21648;DHT22;10985;54.182;7.890;2023-04-07T05:19:13;6.90;99.90
21648;DHT22;10985;54.182;7.890;2023-04-07T05:21:39;6.90;99.90
21648;DHT22;10985;54.182;7.890;2023-04-07T05:24:05;6.80;99.90
21648;DHT22;10985;54.182;7.890;2023-04-07T05:26:30;6.80;99.90
21648;DHT22;10985;54.182;7.890;2023-04-07T05:28:56;6.80;99.90
21648;DHT22;10985;54.182;7.890;2023-04-07T05:31:21;6.80;99.90
21648;DHT22;10985;54.182;7.890;2023-04-07T05:33:47;6.80;99.90
21648;DHT22;10985;54.182;7.890;2023-04-07T05:36:12;6.80;99.90
21648;DHT22;10985;54.182;7.890;2023-04-07T05:38:38;6.80;99.90
21648;DHT22;10985;54.182;7.890;2023-04-07T05:41:03;6.80;99.90
21648;DHT22;10985;54.182;7.890;2023-04-07T05:43:29;6.70;99.90
21648;DHT22;10985;54.182;7.890;2023-04-07T05:45:55;6.70;99.90
21648;DHT22;10985;54.182;7.890;2023-04-07T05:48:20;6.80;99.90
21648;DHT22;10985;54.182;7.890;2023-04-07T05:50:46;6.70;99.90
21648;DHT22;10985;54.182;7.890;2023-04-07T05:53:11;6.70;99.90
21648;DHT22;10985;54.182;7.890;2023-04-07T05:55:37;6.70;99.90
21648;DHT22;10985;54.182;7.890;2023-04-07T05:58:02;6.70;99.90
21648;DHT22;10985;54.182;7.890;2023-04-07T06:00:28;6.70;99.90
21648;DHT22;10985;54.182;7.890;2023-04-07T06:02:54;6.70;99.90
21648;DHT22;10985;54.182;7.890;2023-04-07T06:05:19;6.70;99.90
21648;DHT22;10985;54.182;7.890;2023-04-07T06:07:45;6.70;99.90
21648;DHT22;10985;54.182;7.890;2023-04-07T06:10:10;6.70;99.90
21648;DHT22;10985;54.182;7.890;2023-04-07T06:12:36;6.70;99.90
21648;DHT22;10985;54.182;7.890;2023-04-07T06:15:01;6.70;99.90
21648;DHT22;10985;54.182;7.890;2023-04-07T06:17:27;6.70;99.90
21648;DHT22;10985;54.182;7.890;2023-04-07T06:19:53;6.70;99.90
21648;DHT22;10985;54.182;7.890;2023-04-07T06:22:18;6.70;99.90
21648;DHT22;10985;54.182;7.890;2023-04-07T06:24:44;6.70;99.90
21648;DHT22;10985;54.182;7.890;2023-04-07T06:27:09;6.70;99.90
21648;DHT22;10985;54.182;7.890;2023-04-07T06:29:35;6.70;99.90
21648;DHT22;10985;54.182;7.890;2023-04-07T06:32:01;6.70;99.90
21648;DHT22;10985;54.182;7.890;2023-04-07T06:34:27;6.70;99.90
21648;DHT22;10985;54.182;7.890;2023-04-07T06:36:52;6.70;99.90
21648;DHT22;10985;54.182;7.890;2023-04-07T06:39:18;6.70;99.90
21648;DHT22;10985;54.182;7.890;2023-04-07T06:41:44;6.80;99.90
21648;DHT22;10985;54.182;7.890;2023-04-07T06:44:09;6.80;99.90
21648;DHT22;10985;54.182;7.890;2023-04-07T06:46:38;6.80;99.90
21648;DHT22;10985;54.182;7.890;2023-04-07T06:49:04;6.80;99.90
21648;DHT22;10985;54.182;7.890;2023-04-07T06:51:29;6.80;99.90
21648;DHT22;10985;54.182;7.890;2023-04-07T06:53:56;6.90;99.90
21648;DHT22;10985;54.182;7.890;2023-04-07T06:56:22;6.90;99.90
21648;DHT22;10985;54.182;7.890;2023-04-07T06:58:48;6.80;99.90
21648;DHT22;10985;54.182;7.890;2023-04-07T07:01:13;6.90;99.90
21648;DHT22;10985;54.182;7.890;2023-04-07T07:03:39;6.90;99.90
21648;DHT22;10985;54.182;7.890;2023-04-07T07:06:05;6.90;99.90
21648;DHT22;10985;54.182;7.890;2023-04-07T07:08:30;6.90;99.90
21648;DHT22;10985;54.182;7.890;2023-04-07T07:10:56;6.90;99.90
21648;DHT22;10985;54.182;7.890;2023-04-07T07:13:23;7.00;99.90
21648;DHT22;10985;54.182;7.890;2023-04-07T07:15:49;7.00;99.90
21648;DHT22;10985;54.182;7.890;2023-04-07T07:18:16;7.00;99.90
21648;DHT22;10985;54.182;7.890;2023-04-07T07:20:41;7.00;99.90
21648;DHT22;10985;54.182;7.890;2023-04-07T07:23:07;7.00;99.90
21648;DHT22;10985;54.182;7.890;2023-04-07T07:25:32;7.10;99.90
21648;DHT22;10985;54.182;7.890;2023-04-07T07:27:58;7.00;99.90
21648;DHT22;10985;54.182;7.890;2023-04-07T07:30:23;7.00;99.90
21648;DHT22;10985;54.182;7.890;2023-04-07T07:32:50;7.10;99.90
21648;DHT22;10985;54.182;7.890;2023-04-07T07:35:18;7.10;99.90
21648;DHT22;10985;54.182;7.890;2023-04-07T07:37:43;7.10;99.90
21648;DHT22;10985;54.182;7.890;2023-04-07T07:40:09;7.10;99.90
21648;DHT22;10985;54.182;7.890;2023-04-07T07:42:35;7.20;99.90
21648;DHT22;10985;54.182;7.890;2023-04-07T07:45:00;7.20;99.90
21648;DHT22;10985;54.182;7.890;2023-04-07T07:47:26;7.20;99.90
21648;DHT22;10985;54.182;7.890;2023-04-07T07:49:51;7.30;99.90
21648;DHT22;10985;54.182;7.890;2023-04-07T07:52:17;7.30;99.90
21648;DHT22;10985;54.182;7.890;2023-04-07T07:54:43;7.40;99.90
21648;DHT22;10985;54.182;7.890;2023-04-07T07:57:08;7.40;99.90
21648;DHT22;10985;54.182;7.890;2023-04-07T07:59:34;7.50;99.90
21648;DHT22;10985;54.182;7.890;2023-04-07T08:01:59;7.50;99.90
21648;DHT22;10985;54.182;7.890;2023-04-07T08:04:25;7.60;99.90
21648;DHT22;10985;54.182;7.890;2023-04-07T08:06:51;7.60;99.90
21648;DHT22;10985;54.182;7.890;2023-04-07T08:09:18;7.70;99.90
21648;DHT22;10985;54.182;7.890;2023-04-07T08:11:43;7.80;99.90
21648;DHT22;10985;54.182;7.890;2023-04-07T08:14:09;7.90;99.90
21648;DHT22;10985;54.182;7.890;2023-04-07T08:16:35;8.00;99.90
21648;DHT22;10985;54.182;7.890;2023-04-07T08:19:00;8.20;99.90
21648;DHT22;10985;54.182;7.890;2023-04-07T08:21:26;8.30;99.90
21648;DHT22;10985;54.182;7.890;2023-04-07T08:23:53;8.50;99.90
21648;DHT22;10985;54.182;7.890;2023-04-07T08:26:19;8.60;99.90
21648;DHT22;10985;54.182;7.890;2023-04-07T08:28:45;8.80;99.90
21648;DHT22;10985;54.182;7.890;2023-04-07T08:31:11;9.10;99.90
21648;DHT22;10985;54.182;7.890;2023-04-07T08:33:37;9.30;99.90
21648;DHT22;10985;54.182;7.890;2023-04-07T08:36:02;9.50;99.90
21648;DHT22;10985;54.182;7.890;2023-04-07T08:38:28;9.80;99.90
21648;DHT22;10985;54.182;7.890;2023-04-07T08:40:57;10.00;99.90
21648;DHT22;10985;54.182;7.890;2023-04-07T08:43:26;10.30;99.90
21648;DHT22;10985;54.182;7.890;2023-04-07T08:45:54;10.50;99.90
21648;DHT22;10985;54.182;7.890;2023-04-07T08:48:22;10.70;99.90
21648;DHT22;10985;54.182;7.890;2023-04-07T08:50:51;10.90;99.90
21648;DHT22;10985;54.182;7.890;2023-04-07T08:53:23;11.00;99.90
21648;DHT22;10985;54.182;7.890;2023-04-07T08:55:53;11.20;99.90
21648;DHT22;10985;54.182;7.890;2023-04-07T08:58:19;11.40;99.90
21648;DHT22;10985;54.182;7.890;2023-04-07T09:00:45;11.50;99.90
21648;DHT22;10985;54.182;7.890;2023-04-07T09:03:14;11.60;99.90
21648;DHT22;10985;54.182;7.890;2023-04-07T09:05:43;11.80;99.90
21648;DHT22;10985;54.182;7.890;2023-04-07T09:08:09;11.90;99.90
21648;DHT22;10985;54.182;7.890;2023-04-07T09:10:35;12.00;99.90
21648;DHT22;10985;54.182;7.890;2023-04-07T09:13:01;12.00;99.90
21648;DHT22;10985;54.182;7.890;2023-04-07T09:15:29;12.10;99.90
21648;DHT22;10985;54.182;7.890;2023-04-07T09:17:57;12.30;99.90
21648;DHT22;10985;54.182;7.890;2023-04-07T09:20:22;12.40;99.90
21648;DHT22;10985;54.182;7.890;2023-04-07T09:22:48;12.50;99.90
21648;DHT22;10985;54.182;7.890;2023-04-07T09:25:20;12.70;99.90
21648;DHT22;10985;54.182;7.890;2023-04-07T09:28:03;12.80;99.90
21648;DHT22;10985;54.182;7.890;2023-04-07T09:30:31;12.90;99.90
21648;DHT22;10985;54.182;7.890;2023-04-07T09:32:58;13.20;99.90
21648;DHT22;10985;54.182;7.890;2023-04-07T09:35:24;13.50;99.90
21648;DHT22;10985;54.182;7.890;2023-04-07T09:38:03;13.60;99.90
21648;DHT22;10985;54.182;7.890;2023-04-07T09:40:29;13.90;99.90
21648;DHT22;10985;54.182;7.890;2023-04-07T09:42:54;14.10;99.90
21648;DHT22;10985;54.182;7.890;2023-04-07T09:45:24;14.40;99.90
21648;DHT22;10985;54.182;7.890;2023-04-07T09:47:50;14.70;99.90
21648;DHT22;10985;54.182;7.890;2023-04-07T09:50:30;14.90;99.90
21648;DHT22;10985;54.182;7.890;2023-04-07T09:52:57;15.20;99.90
21648;DHT22;10985;54.182;7.890;2023-04-07T09:55:22;15.40;99.90
21648;DHT22;10985;54.182;7.890;2023-04-07T09:57:49;15.50;99.90
21648;DHT22;10985;54.182;7.890;2023-04-07T10:00:15;15.80;99.90
21648;DHT22;10985;54.182;7.890;2023-04-07T10:02:42;16.00;99.90
21648;DHT22;10985;54.182;7.890;2023-04-07T10:05:08;16.30;99.90
21648;DHT22;10985;54.182;7.890;2023-04-07T10:07:34;16.50;99.90
21648;DHT22;10985;54.182;7.890;2023-04-07T10:10:00;16.80;99.90
21648;DHT22;10985;54.182;7.890;2023-04-07T10:12:26;17.10;99.90
21648;DHT22;10985;54.182;7.890;2023-04-07T10:14:52;17.50;99.90
21648;DHT22;10985;54.182;7.890;2023-04-07T10:17:19;17.70;99.90
21648;DHT22;10985;54.182;7.890;2023-04-07T10:19:47;17.90;99.90
21648;DHT22;10985;54.182;7.890;2023-04-07T10:22:13;17.80;99.90
21648;DHT22;10985;54.182;7.890;2023-04-07T10:27:55;18.20;99.90
21648;DHT22;10985;54.182;7.890;2023-04-07T10:30:28;18.40;99.90
21648;DHT22;10985;54.182;7.890;2023-04-07T10:32:54;18.40;99.90
21648;DHT22;10985;54.182;7.890;2023-04-07T10:35:20;18.80;99.90
21648;DHT22;10985;54.182;7.890;2023-04-07T10:40:33;19.60;99.90
21648;DHT22;10985;54.182;7.890;2023-04-07T10:42:58;20.00;99.90
21648;DHT22;10985;54.182;7.890;2023-04-07T10:48:16;20.50;96.90
21648;DHT22;10985;54.182;7.890;2023-04-07T10:50:43;20.70;96.40
21648;DHT22;10985;54.182;7.890;2023-04-07T10:53:10;21.20;95.30
21648;DHT22;10985;54.182;7.890;2023-04-07T10:55:43;21.70;93.10
21648;DHT22;10985;54.182;7.890;2023-04-07T10:58:16;21.80;92.20
21648;DHT22;10985;54.182;7.890;2023-04-07T11:01:15;22.20;91.10
21648;DHT22;10985;54.182;7.890;2023-04-07T11:03:30;22.30;87.00
21648;DHT22;10985;54.182;7.890;2023-04-07T11:06:03;22.60;88.30
21648;DHT22;10985;54.182;7.890;2023-04-07T11:08:36;22.80;87.70
21648;DHT22;10985;54.182;7.890;2023-04-07T11:11:06;23.30;85.90
21648;DHT22;10985;54.182;7.890;2023-04-07T11:13:49;23.60;82.60
21648;DHT22;10985;54.182;7.890;2023-04-07T11:16:17;24.00;81.70
21648;DHT22;10985;54.182;7.890;2023-04-07T11:18:44;24.20;81.40
21648;DHT22;10985;54.182;7.890;2023-04-07T11:21:10;24.30;78.90
21648;DHT22;10985;54.182;7.890;2023-04-07T11:23:40;24.40;76.90
21648;DHT22;10985;54.182;7.890;2023-04-07T11:26:07;24.40;73.70
21648;DHT22;10985;54.182;7.890;2023-04-07T11:28:34;24.60;74.50
21648;DHT22;10985;54.182;7.890;2023-04-07T11:31:00;24.80;71.70
21648;DHT22;10985;54.182;7.890;2023-04-07T11:33:28;24.80;70.30
21648;DHT22;10985;54.182;7.890;2023-04-07T11:35:56;25.00;69.20
21648;DHT22;10985;54.182;7.890;2023-04-07T11:38:28;24.70;67.80
21648;DHT22;10985;54.182;7.890;2023-04-07T11:40:55;24.30;67.60
21648;DHT22;10985;54.182;7.890;2023-04-07T11:43:23;23.60;68.70
21648;DHT22;10985;54.182;7.890;2023-04-07T11:46:09;22.80;70.30
21648;DHT22;10985;54.182;7.890;2023-04-07T11:48:37;22.00;72.00
21648;DHT22;10985;54.182;7.890;2023-04-07T11:51:03;21.00;76.40
21648;DHT22;10985;54.182;7.890;2023-04-07T11:53:33;20.10;80.00
21648;DHT22;10985;54.182;7.890;2023-04-07T11:56:11;19.20;83.80
21648;DHT22;10985;54.182;7.890;2023-04-07T11:58:53;18.60;90.10
21648;DHT22;10985;54.182;7.890;2023-04-07T12:01:19;17.80;92.30
21648;DHT22;10985;54.182;7.890;2023-04-07T12:04:00;17.40;95.10
21648;DHT22;10985;54.182;7.890;2023-04-07T12:06:36;17.10;96.30
21648;DHT22;10985;54.182;7.890;2023-04-07T12:09:06;16.90;98.40
21648;DHT22;10985;54.182;7.890;2023-04-07T12:11:32;16.80;98.50
21648;DHT22;10985;54.182;7.890;2023-04-07T12:13:58;16.90;99.00
21648;DHT22;10985;54.182;7.890;2023-04-07T12:16:24;16.80;99.30
21648;DHT22;10985;54.182;7.890;2023-04-07T12:18:50;16.90;99.50
21648;DHT22;10985;54.182;7.890;2023-04-07T12:21:17;17.20;99.00
21648;DHT22;10985;54.182;7.890;2023-04-07T12:23:43;17.40;98.60
21648;DHT22;10985;54.182;7.890;2023-04-07T12:26:08;17.90;99.20
21648;DHT22;10985;54.182;7.890;2023-04-07T12:28:36;18.30;98.60
21648;DHT22;10985;54.182;7.890;2023-04-07T12:31:02;18.60;99.20
21648;DHT22;10985;54.182;7.890;2023-04-07T12:33:28;18.90;96.50
21648;DHT22;10985;54.182;7.890;2023-04-07T12:35:53;19.10;97.20
21648;DHT22;10985;54.182;7.890;2023-04-07T12:38:19;19.30;95.80
21648;DHT22;10985;54.182;7.890;2023-04-07T12:40:45;19.70;95.50
21648;DHT22;10985;54.182;7.890;2023-04-07T12:43:10;20.10;94.80
21648;DHT22;10985;54.182;7.890;2023-04-07T12:45:37;20.40;93.10
21648;DHT22;10985;54.182;7.890;2023-04-07T12:48:02;20.40;91.30
21648;DHT22;10985;54.182;7.890;2023-04-07T12:50:28;20.30;91.30
21648;DHT22;10985;54.182;7.890;2023-04-07T12:52:54;20.10;91.40
21648;DHT22;10985;54.182;7.890;2023-04-07T12:55:20;20.10;92.30
21648;DHT22;10985;54.182;7.890;2023-04-07T12:57:45;20.50;92.40
21648;DHT22;10985;54.182;7.890;2023-04-07T13:00:12;21.00;92.00
21648;DHT22;10985;54.182;7.890;2023-04-07T13:02:37;21.30;91.60
21648;DHT22;10985;54.182;7.890;2023-04-07T13:05:03;21.60;90.50
21648;DHT22;10985;54.182;7.890;2023-04-07T13:07:29;21.80;88.50
21648;DHT22;10985;54.182;7.890;2023-04-07T13:09:55;21.90;85.80
21648;DHT22;10985;54.182;7.890;2023-04-07T13:12:22;22.00;86.10
21648;DHT22;10985;54.182;7.890;2023-04-07T13:14:47;22.00;84.10
21648;DHT22;10985;54.182;7.890;2023-04-07T13:17:13;21.80;85.00
21648;DHT22;10985;54.182;7.890;2023-04-07T13:19:39;21.70;84.70
21648;DHT22;10985;54.182;7.890;2023-04-07T13:22:05;21.60;83.80
21648;DHT22;10985;54.182;7.890;2023-04-07T13:24:31;21.40;84.60
21648;DHT22;10985;54.182;7.890;2023-04-07T13:26:56;21.20;84.70
21648;DHT22;10985;54.182;7.890;2023-04-07T13:29:22;21.00;85.50
21648;DHT22;10985;54.182;7.890;2023-04-07T13:31:48;20.50;85.00
21648;DHT22;10985;54.182;7.890;2023-04-07T13:34:14;20.30;87.50
21648;DHT22;10985;54.182;7.890;2023-04-07T13:36:40;20.10;89.90
21648;DHT22;10985;54.182;7.890;2023-04-07T13:39:06;19.70;89.70
21648;DHT22;10985;54.182;7.890;2023-04-07T13:41:32;19.50;90.70
21648;DHT22;10985;54.182;7.890;2023-04-07T13:43:58;19.20;91.10
21648;DHT22;10985;54.182;7.890;2023-04-07T13:46:24;18.70;92.70
21648;DHT22;10985;54.182;7.890;2023-04-07T13:48:51;18.40;94.40
21648;DHT22;10985;54.182;7.890;2023-04-07T13:51:17;18.00;96.00
21648;DHT22;10985;54.182;7.890;2023-04-07T13:53:43;17.60;96.30
21648;DHT22;10985;54.182;7.890;2023-04-07T13:56:09;17.20;95.30
21648;DHT22;10985;54.182;7.890;2023-04-07T13:58:35;17.00;95.70
21648;DHT22;10985;54.182;7.890;2023-04-07T14:01:01;16.60;95.60
21648;DHT22;10985;54.182;7.890;2023-04-07T14:03:27;16.40;95.30
21648;DHT22;10985;54.182;7.890;2023-04-07T14:05:53;16.00;94.60
21648;DHT22;10985;54.182;7.890;2023-04-07T14:08:22;15.70;95.80
21648;DHT22;10985;54.182;7.890;2023-04-07T14:10:48;15.50;96.00
21648;DHT22;10985;54.182;7.890;2023-04-07T14:13:14;15.10;96.60
21648;DHT22;10985;54.182;7.890;2023-04-07T14:15:40;14.80;98.80
21648;DHT22;10985;54.182;7.890;2023-04-07T14:18:05;14.70;99.90
21648;DHT22;10985;54.182;7.890;2023-04-07T14:20:31;14.40;99.90
21648;DHT22;10985;54.182;7.890;2023-04-07T14:22:57;14.20;99.90
21648;DHT22;10985;54.182;7.890;2023-04-07T14:25:23;14.10;99.90
21648;DHT22;10985;54.182;7.890;2023-04-07T14:27:48;13.90;99.90
21648;DHT22;10985;54.182;7.890;2023-04-07T14:30:15;13.70;99.90
21648;DHT22;10985;54.182;7.890;2023-04-07T14:32:41;13.50;99.90
21648;DHT22;10985;54.182;7.890;2023-04-07T14:35:06;13.30;99.90
21648;DHT22;10985;54.182;7.890;2023-04-07T14:37:32;13.20;99.90
21648;DHT22;10985;54.182;7.890;2023-04-07T14:40:00;13.10;99.90
21648;DHT22;10985;54.182;7.890;2023-04-07T14:42:26;12.90;99.90
21648;DHT22;10985;54.182;7.890;2023-04-07T14:44:54;12.80;99.90
21648;DHT22;10985;54.182;7.890;2023-04-07T14:47:19;12.70;99.90
21648;DHT22;10985;54.182;7.890;2023-04-07T14:49:45;12.60;99.90
21648;DHT22;10985;54.182;7.890;2023-04-07T14:52:10;12.50;99.90
21648;DHT22;10985;54.182;7.890;2023-04-07T14:54:37;12.40;99.90
21648;DHT22;10985;54.182;7.890;2023-04-07T14:57:04;12.20;99.90
21648;DHT22;10985;54.182;7.890;2023-04-07T14:59:30;12.20;99.90
21648;DHT22;10985;54.182;7.890;2023-04-07T15:01:55;12.10;99.90
21648;DHT22;10985;54.182;7.890;2023-04-07T15:04:21;12.00;99.90
21648;DHT22;10985;54.182;7.890;2023-04-07T15:06:46;12.00;99.90
21648;DHT22;10985;54.182;7.890;2023-04-07T15:09:12;11.90;99.90
21648;DHT22;10985;54.182;7.890;2023-04-07T15:11:37;11.90;99.90
21648;DHT22;10985;54.182;7.890;2023-04-07T15:14:03;11.80;99.90
21648;DHT22;10985;54.182;7.890;2023-04-07T15:16:31;11.70;99.90
21648;DHT22;10985;54.182;7.890;2023-04-07T15:18:56;11.70;99.90
21648;DHT22;10985;54.182;7.890;2023-04-07T15:21:22;11.60;99.90
21648;DHT22;10985;54.182;7.890;2023-04-07T15:23:47;11.60;99.90
21648;DHT22;10985;54.182;7.890;2023-04-07T15:26:13;11.60;99.90
21648;DHT22;10985;54.182;7.890;2023-04-07T15:28:39;11.50;99.90
21648;DHT22;10985;54.182;7.890;2023-04-07T15:31:04;11.40;99.90
21648;DHT22;10985;54.182;7.890;2023-04-07T15:33:38;11.40;99.90
21648;DHT22;10985;54.182;7.890;2023-04-07T15:36:05;11.30;99.90
21648;DHT22;10985;54.182;7.890;2023-04-07T15:38:30;11.30;99.90
21648;DHT22;10985;54.182;7.890;2023-04-07T15:40:56;11.30;99.90
21648;DHT22;10985;54.182;7.890;2023-04-07T15:43:22;11.30;99.90
21648;DHT22;10985;54.182;7.890;2023-04-07T15:45:47;11.30;99.90
21648;DHT22;10985;54.182;7.890;2023-04-07T15:48:13;11.20;99.90
21648;DHT22;10985;54.182;7.890;2023-04-07T15:50:39;11.10;99.90
21648;DHT22;10985;54.182;7.890;2023-04-07T15:53:05;11.10;99.90
21648;DHT22;10985;54.182;7.890;2023-04-07T15:55:32;11.10;99.90